sensor_id;sensor_type;location;lat;lon;timestamp;pressure;altitude;pressure_sealevel;temperature;humidity
36062;BME280;22123;52.412;20.970;2023-05-20T00:00:46;101835.38;;;12.13;100.00
36062;BME280;22123;52.412;20.970;2023-05-20T00:03:12;101822.50;;;12.07;100.00
36062;BME280;22123;52.412;20.970;2023-05-20T00:05:38;101820.22;;;12.12;100.00
36062;BME280;22123;52.412;20.970;2023-05-20T00:08:04;101836.94;;;12.16;100.00
36062;BME280;22123;52.412;20.970;2023-05-20T00:10:30;101830.69;;;12.15;100.00
36062;BME280;22123;52.412;20.970;2023-05-20T00:12:56;101823.75;;;12.13;100.00
36062;BME280;22123;52.412;20.970;2023-05-20T00:15:21;101819.78;;;12.07;100.00
36062;BME280;22123;52.412;20.970;2023-05-20T00:17:47;101809.59;;;12.01;100.00
36062;BME280;22123;52.412;20.970;2023-05-20T00:20:13;101831.16;;;12.11;100.00
36062;BME280;22123;52.412;20.970;2023-05-20T00:22:39;101815.53;;;12.05;100.00
36062;BME280;22123;52.412;20.970;2023-05-20T00:25:05;101825.59;;;12.12;100.00
36062;BME280;22123;52.412;20.970;2023-05-20T00:27:31;101798.66;;;11.93;100.00
36062;BME280;22123;52.412;20.970;2023-05-20T00:29:57;101814.00;;;12.02;100.00
36062;BME280;22123;52.412;20.970;2023-05-20T00:32:23;101815.16;;;11.99;100.00
36062;BME280;22123;52.412;20.970;2023-05-20T00:34:56;101805.78;;;11.94;100.00
36062;BME280;22123;52.412;20.970;2023-05-20T00:37:22;101798.41;;;11.86;100.00
36062;BME280;22123;52.412;20.970;2023-05-20T00:39:48;101788.75;;;11.83;100.00
36062;BME280;22123;52.412;20.970;2023-05-20T00:42:24;101810.88;;;11.97;100.00
36062;BME280;22123;52.412;20.970;2023-05-20T00:44:50;101812.59;;;11.98;100.00
36062;BME280;22123;52.412;20.970;2023-05-20T00:47:17;101789.91;;;11.81;100.00
36062;BME280;22123;52.412;20.970;2023-05-20T00:49:44;101795.00;;;11.84;100.00
36062;BME280;22123;52.412;20.970;2023-05-20T00:52:10;101812.44;;;11.90;100.00
36062;BME280;22123;52.412;20.970;2023-05-20T00:54:36;101812.16;;;11.93;100.00
36062;BME280;22123;52.412;20.970;2023-05-20T00:57:03;101808.34;;;11.86;100.00
36062;BME280;22123;52.412;20.970;2023-05-20T00:59:29;101811.34;;;11.82;100.00
36062;BME280;22123;52.412;20.970;2023-05-20T01:01:56;101819.56;;;11.91;100.00
36062;BME280;22123;52.412;20.970;2023-05-20T01:04:22;101799.44;;;11.75;100.00
36062;BME280;22123;52.412;20.970;2023-05-20T01:06:48;101804.69;;;11.77;100.00
36062;BME280;22123;52.412;20.970;2023-05-20T01:09:14;101817.56;;;11.83;100.00
36062;BME280;22123;52.412;20.970;2023-05-20T01:11:47;101806.53;;;11.76;100.00
36062;BME280;22123;52.412;20.970;2023-05-20T01:14:16;101824.13;;;11.80;100.00
36062;BME280;22123;52.412;20.970;2023-05-20T01:16:44;101814.34;;;11.79;100.00
36062;BME280;22123;52.412;20.970;2023-05-20T01:19:28;101814.34;;;11.79;100.00
36062;BME280;22123;52.412;20.970;2023-05-20T01:21:56;101799.31;;;11.67;100.00
36062;BME280;22123;52.412;20.970;2023-05-20T01:24:24;101821.72;;;11.77;100.00
36062;BME280;22123;52.412;20.970;2023-05-20T01:26:50;101809.81;;;11.70;100.00
36062;BME280;22123;52.412;20.970;2023-05-20T01:29:16;101799.91;;;11.61;100.00
36062;BME280;22123;52.412;20.970;2023-05-20T01:31:42;101795.41;;;11.52;100.00
36062;BME280;22123;52.412;20.970;2023-05-20T01:34:08;101816.59;;;11.74;100.00
36062;BME280;22123;52.412;20.970;2023-05-20T01:36:34;101822.31;;;11.71;100.00
36062;BME280;22123;52.412;20.970;2023-05-20T01:39:01;101816.50;;;11.66;100.00
36062;BME280;22123;52.412;20.970;2023-05-20T01:41:27;101789.28;;;11.49;100.00
36062;BME280;22123;52.412;20.970;2023-05-20T01:43:54;101816.50;;;11.66;100.00
36062;BME280;22123;52.412;20.970;2023-05-20T01:46:20;101816.66;;;11.64;100.00
36062;BME280;22123;52.412;20.970;2023-05-20T01:48:46;101811.81;;;11.58;100.00
36062;BME280;22123;52.412;20.970;2023-05-20T01:51:12;101786.34;;;11.43;100.00
36062;BME280;22123;52.412;20.970;2023-05-20T01:53:37;101794.97;;;11.46;100.00
36062;BME280;22123;52.412;20.970;2023-05-20T01:56:04;101772.03;;;11.33;100.00
36062;BME280;22123;52.412;20.970;2023-05-20T01:58:30;101795.53;;;11.50;100.00
36062;BME280;22123;52.412;20.970;2023-05-20T02:00:56;101792.84;;;11.50;100.00
36062;BME280;22123;52.412;20.970;2023-05-20T02:03:22;101732.22;;;11.07;100.00
36062;BME280;22123;52.412;20.970;2023-05-20T02:05:48;101784.63;;;11.32;100.00
36062;BME280;22123;52.412;20.970;2023-05-20T02:08:14;101791.44;;;11.36;100.00
36062;BME280;22123;52.412;20.970;2023-05-20T02:10:40;101776.00;;;11.28;100.00
36062;BME280;22123;52.412;20.970;2023-05-20T02:13:05;101762.97;;;11.14;100.00
36062;BME280;22123;52.412;20.970;2023-05-20T02:15:31;101763.53;;;11.08;100.00
36062;BME280;22123;52.412;20.970;2023-05-20T02:17:57;101779.84;;;11.16;100.00
36062;BME280;22123;52.412;20.970;2023-05-20T02:20:23;101784.53;;;11.14;100.00
36062;BME280;22123;52.412;20.970;2023-05-20T02:22:49;101772.50;;;11.08;100.00
36062;BME280;22123;52.412;20.970;2023-05-20T02:25:15;101797.97;;;11.24;100.00
36062;BME280;22123;52.412;20.970;2023-05-20T02:27:41;101774.91;;;11.02;100.00
36062;BME280;22123;52.412;20.970;2023-05-20T02:30:07;101806.50;;;11.19;100.00
36062;BME280;22123;52.412;20.970;2023-05-20T02:32:33;101808.91;;;11.22;100.00
36062;BME280;22123;52.412;20.970;2023-05-20T02:34:58;101782.53;;;11.06;100.00
36062;BME280;22123;52.412;20.970;2023-05-20T02:37:24;101810.22;;;11.18;100.00
36062;BME280;22123;52.412;20.970;2023-05-20T02:39:50;101764.25;;;10.90;100.00
36062;BME280;22123;52.412;20.970;2023-05-20T02:42:16;101818.56;;;11.15;100.00
36062;BME280;22123;52.412;20.970;2023-05-20T02:44:42;101806.94;;;11.14;100.00
36062;BME280;22123;52.412;20.970;2023-05-20T02:47:09;101808.94;;;11.12;100.00
36062;BME280;22123;52.412;20.970;2023-05-20T02:49:35;101771.34;;;10.91;100.00
36062;BME280;22123;52.412;20.970;2023-05-20T02:52:01;101779.44;;;10.91;100.00
36062;BME280;22123;52.412;20.970;2023-05-20T02:54:26;101814.03;;;11.06;100.00
36062;BME280;22123;52.412;20.970;2023-05-20T02:56:52;101790.94;;;10.93;100.00
36062;BME280;22123;52.412;20.970;2023-05-20T02:59:18;101772.78;;;10.86;100.00
36062;BME280;22123;52.412;20.970;2023-05-20T03:01:44;101825.13;;;11.12;100.00
36062;BME280;22123;52.412;20.970;2023-05-20T03:04:10;101807.22;;;11.02;100.00
36062;BME280;22123;52.412;20.970;2023-05-20T03:06:36;101812.63;;;11.11;100.00
36062;BME280;22123;52.412;20.970;2023-05-20T03:09:02;101802.41;;;11.15;100.00
36062;BME280;22123;52.412;20.970;2023-05-20T03:11:27;101782.13;;;11.01;100.00
36062;BME280;22123;52.412;20.970;2023-05-20T03:13:53;101801.56;;;11.14;100.00
36062;BME280;22123;52.412;20.970;2023-05-20T03:16:19;101817.16;;;11.21;100.00
36062;BME280;22123;52.412;20.970;2023-05-20T03:18:45;101806.34;;;11.21;100.00
36062;BME280;22123;52.412;20.970;2023-05-20T03:21:11;101764.84;;;10.94;100.00
36062;BME280;22123;52.412;20.970;2023-05-20T03:23:37;101805.22;;;11.23;100.00
36062;BME280;22123;52.412;20.970;2023-05-20T03:26:03;101810.19;;;11.28;100.00
36062;BME280;22123;52.412;20.970;2023-05-20T03:28:29;101815.44;;;11.29;100.00
36062;BME280;22123;52.412;20.970;2023-05-20T03:30:55;101767.69;;;11.02;100.00
36062;BME280;22123;52.412;20.970;2023-05-20T03:33:20;101814.28;;;11.32;100.00
36062;BME280;22123;52.412;20.970;2023-05-20T03:35:46;101782.41;;;11.18;100.00
36062;BME280;22123;52.412;20.970;2023-05-20T03:38:12;101781.69;;;11.16;100.00
36062;BME280;22123;52.412;20.970;2023-05-20T03:40:38;101795.88;;;11.27;100.00
36062;BME280;22123;52.412;20.970;2023-05-20T03:43:04;101810.47;;;11.35;100.00
36062;BME280;22123;52.412;20.970;2023-05-20T03:45:30;101821.25;;;11.44;100.00
36062;BME280;22123;52.412;20.970;2023-05-20T03:47:56;101758.44;;;11.05;100.00
36062;BME280;22123;52.412;20.970;2023-05-20T03:50:21;101819.53;;;11.43;100.00
36062;BME280;22123;52.412;20.970;2023-05-20T03:52:47;101813.84;;;11.46;100.00
36062;BME280;22123;52.412;20.970;2023-05-20T03:55:13;101814.97;;;11.54;100.00
36062;BME280;22123;52.412;20.970;2023-05-20T03:57:39;101820.06;;;11.57;100.00
36062;BME280;22123;52.412;20.970;2023-05-20T04:00:05;101820.78;;;11.59;100.00
36062;BME280;22123;52.412;20.970;2023-05-20T04:02:31;101825.44;;;11.66;100.00
36062;BME280;22123;52.412;20.970;2023-05-20T04:04:57;101792.69;;;11.52;100.00
36062;BME280;22123;52.412;20.970;2023-05-20T04:07:23;101796.66;;;11.57;100.00
36062;BME280;22123;52.412;20.970;2023-05-20T04:09:49;101807.25;;;11.69;100.00
36062;BME280;22123;52.412;20.970;2023-05-20T04:12:15;101815.78;;;11.74;100.00
36062;BME280;22123;52.412;20.970;2023-05-20T04:14:41;101790.81;;;11.62;100.00
36062;BME280;22123;52.412;20.970;2023-05-20T04:17:07;101798.03;;;11.71;100.00
36062;BME280;22123;52.412;20.970;2023-05-20T04:19:33;101801.69;;;11.80;100.00
36062;BME280;22123;52.412;20.970;2023-05-20T04:21:58;101786.38;;;11.71;100.00
36062;BME280;22123;52.412;20.970;2023-05-20T04:24:24;101815.00;;;11.91;100.00
36062;BME280;22123;52.412;20.970;2023-05-20T04:26:50;101804.50;;;11.88;100.00
36062;BME280;22123;52.412;20.970;2023-05-20T04:29:17;101810.59;;;11.90;100.00
36062;BME280;22123;52.412;20.970;2023-05-20T04:31:43;101822.94;;;12.03;100.00
36062;BME280;22123;52.412;20.970;2023-05-20T04:34:09;101835.22;;;12.15;100.00
36062;BME280;22123;52.412;20.970;2023-05-20T04:36:35;101823.63;;;12.05;100.00
36062;BME280;22123;52.412;20.970;2023-05-20T04:39:01;101827.13;;;12.15;100.00
36062;BME280;22123;52.412;20.970;2023-05-20T04:41:27;101836.91;;;12.26;100.00
36062;BME280;22123;52.412;20.970;2023-05-20T04:43:53;101825.09;;;12.27;100.00
36062;BME280;22123;52.412;20.970;2023-05-20T04:46:18;101829.75;;;12.34;100.00
36062;BME280;22123;52.412;20.970;2023-05-20T04:48:44;101796.28;;;12.17;100.00
36062;BME280;22123;52.412;20.970;2023-05-20T04:51:10;101811.00;;;12.33;100.00
36062;BME280;22123;52.412;20.970;2023-05-20T04:53:36;101828.53;;;12.47;100.00
36062;BME280;22123;52.412;20.970;2023-05-20T04:56:02;101821.81;;;12.51;100.00
36062;BME280;22123;52.412;20.970;2023-05-20T04:58:28;101806.06;;;12.46;100.00
36062;BME280;22123;52.412;20.970;2023-05-20T05:00:54;101825.31;;;12.61;100.00
36062;BME280;22123;52.412;20.970;2023-05-20T05:03:20;101818.22;;;12.60;100.00
36062;BME280;22123;52.412;20.970;2023-05-20T05:05:46;101824.41;;;12.70;100.00
36062;BME280;22123;52.412;20.970;2023-05-20T05:08:12;101795.31;;;12.64;100.00
36062;BME280;22123;52.412;20.970;2023-05-20T05:10:37;101822.31;;;12.82;100.00
36062;BME280;22123;52.412;20.970;2023-05-20T05:13:03;101829.44;;;12.83;100.00
36062;BME280;22123;52.412;20.970;2023-05-20T05:15:29;101816.25;;;12.80;100.00
36062;BME280;22123;52.412;20.970;2023-05-20T05:17:55;101807.81;;;12.83;100.00
36062;BME280;22123;52.412;20.970;2023-05-20T05:20:21;101831.97;;;13.03;100.00
36062;BME280;22123;52.412;20.970;2023-05-20T05:22:47;101832.06;;;13.11;100.00
36062;BME280;22123;52.412;20.970;2023-05-20T05:25:13;101820.69;;;13.08;100.00
36062;BME280;22123;52.412;20.970;2023-05-20T05:27:39;101776.31;;;12.92;100.00
36062;BME280;22123;52.412;20.970;2023-05-20T05:30:05;101806.63;;;13.22;100.00
36062;BME280;22123;52.412;20.970;2023-05-20T05:32:31;101834.19;;;13.44;100.00
36062;BME280;22123;52.412;20.970;2023-05-20T05:34:58;101828.00;;;13.51;100.00
36062;BME280;22123;52.412;20.970;2023-05-20T05:37:24;101821.38;;;13.46;100.00
36062;BME280;22123;52.412;20.970;2023-05-20T05:39:50;101825.00;;;13.54;100.00
36062;BME280;22123;52.412;20.970;2023-05-20T05:42:16;101806.06;;;13.54;100.00
36062;BME280;22123;52.412;20.970;2023-05-20T05:44:41;101810.50;;;13.64;100.00
36062;BME280;22123;52.412;20.970;2023-05-20T05:47:07;101824.44;;;13.77;100.00
36062;BME280;22123;52.412;20.970;2023-05-20T05:49:33;101823.97;;;13.82;100.00
36062;BME280;22123;52.412;20.970;2023-05-20T05:51:59;101826.22;;;13.95;100.00
36062;BME280;22123;52.412;20.970;2023-05-20T05:54:25;101828.63;;;13.98;100.00
36062;BME280;22123;52.412;20.970;2023-05-20T05:56:51;101834.41;;;14.03;100.00
36062;BME280;22123;52.412;20.970;2023-05-20T05:59:18;101832.91;;;14.08;100.00
36062;BME280;22123;52.412;20.970;2023-05-20T06:01:44;101835.59;;;14.08;100.00
36062;BME280;22123;52.412;20.970;2023-05-20T06:04:10;101823.44;;;14.13;100.00
36062;BME280;22123;52.412;20.970;2023-05-20T06:06:36;101835.16;;;14.21;100.00
36062;BME280;22123;52.412;20.970;2023-05-20T06:09:02;101832.63;;;14.20;100.00
36062;BME280;22123;52.412;20.970;2023-05-20T06:11:27;101834.00;;;14.32;100.00
36062;BME280;22123;52.412;20.970;2023-05-20T06:13:53;101795.38;;;14.14;100.00
36062;BME280;22123;52.412;20.970;2023-05-20T06:16:19;101832.88;;;14.43;100.00
36062;BME280;22123;52.412;20.970;2023-05-20T06:18:45;101792.84;;;14.20;100.00
36062;BME280;22123;52.412;20.970;2023-05-20T06:21:11;101832.91;;;14.51;100.00
36062;BME280;22123;52.412;20.970;2023-05-20T06:23:37;101827.81;;;14.56;100.00
36062;BME280;22123;52.412;20.970;2023-05-20T06:26:03;101824.13;;;14.57;100.00
36062;BME280;22123;52.412;20.970;2023-05-20T06:28:29;101801.38;;;14.42;100.00
36062;BME280;22123;52.412;20.970;2023-05-20T06:30:55;101803.06;;;14.43;100.00
36062;BME280;22123;52.412;20.970;2023-05-20T06:33:25;101812.25;;;14.50;100.00
36062;BME280;22123;52.412;20.970;2023-05-20T06:35:55;101825.50;;;14.62;100.00
36062;BME280;22123;52.412;20.970;2023-05-20T06:38:21;101821.13;;;14.69;100.00
36062;BME280;22123;52.412;20.970;2023-05-20T06:40:47;101811.66;;;14.81;100.00
36062;BME280;22123;52.412;20.970;2023-05-20T06:43:17;101808.13;;;14.89;100.00
36062;BME280;22123;52.412;20.970;2023-05-20T06:45:43;101807.25;;;14.97;100.00
36062;BME280;22123;52.412;20.970;2023-05-20T06:48:09;101807.28;;;15.05;100.00
36062;BME280;22123;52.412;20.970;2023-05-20T06:50:35;101802.69;;;15.05;100.00
36062;BME280;22123;52.412;20.970;2023-05-20T06:53:00;101814.41;;;15.22;100.00
36062;BME280;22123;52.412;20.970;2023-05-20T06:55:26;101816.06;;;15.32;100.00
36062;BME280;22123;52.412;20.970;2023-05-20T06:57:52;101815.25;;;15.31;100.00
36062;BME280;22123;52.412;20.970;2023-05-20T07:00:18;101789.97;;;15.22;100.00
36062;BME280;22123;52.412;20.970;2023-05-20T07:02:44;101809.13;;;15.45;100.00
36062;BME280;22123;52.412;20.970;2023-05-20T07:05:09;101796.38;;;15.46;100.00
36062;BME280;22123;52.412;20.970;2023-05-20T07:07:35;101810.97;;;15.61;100.00
36062;BME280;22123;52.412;20.970;2023-05-20T07:10:01;101808.38;;;15.68;100.00
36062;BME280;22123;52.412;20.970;2023-05-20T07:12:27;101793.63;;;15.62;100.00
36062;BME280;22123;52.412;20.970;2023-05-20T07:14:53;101809.69;;;15.89;100.00
36062;BME280;22123;52.412;20.970;2023-05-20T07:17:18;101789.19;;;15.86;100.00
36062;BME280;22123;52.412;20.970;2023-05-20T07:19:44;101812.56;;;16.04;100.00
36062;BME280;22123;52.412;20.970;2023-05-20T07:22:10;101781.22;;;15.85;100.00
36062;BME280;22123;52.412;20.970;2023-05-20T07:24:36;101800.19;;;15.93;100.00
36062;BME280;22123;52.412;20.970;2023-05-20T07:27:02;101793.16;;;16.15;100.00
36062;BME280;22123;52.412;20.970;2023-05-20T07:29:28;101805.06;;;16.45;100.00
36062;BME280;22123;52.412;20.970;2023-05-20T07:31:54;101796.19;;;16.51;100.00
36062;BME280;22123;52.412;20.970;2023-05-20T07:34:20;101799.59;;;16.77;100.00
36062;BME280;22123;52.412;20.970;2023-05-20T07:36:45;101789.00;;;16.90;100.00
36062;BME280;22123;52.412;20.970;2023-05-20T07:39:11;101780.75;;;16.98;100.00
36062;BME280;22123;52.412;20.970;2023-05-20T07:41:37;101776.47;;;17.04;100.00
36062;BME280;22123;52.412;20.970;2023-05-20T07:44:03;101785.28;;;17.44;100.00
36062;BME280;22123;52.412;20.970;2023-05-20T07:46:29;101786.31;;;17.58;100.00
36062;BME280;22123;52.412;20.970;2023-05-20T07:48:55;101783.25;;;17.76;100.00
36062;BME280;22123;52.412;20.970;2023-05-20T07:51:21;101788.22;;;18.02;100.00
36062;BME280;22123;52.412;20.970;2023-05-20T07:53:47;101759.78;;;18.05;100.00
36062;BME280;22123;52.412;20.970;2023-05-20T07:56:12;101768.63;;;18.29;100.00
36062;BME280;22123;52.412;20.970;2023-05-20T07:58:42;101781.28;;;18.51;100.00
36062;BME280;22123;52.412;20.970;2023-05-20T08:01:08;101783.81;;;18.74;100.00
36062;BME280;22123;52.412;20.970;2023-05-20T08:03:34;101776.09;;;19.00;100.00
36062;BME280;22123;52.412;20.970;2023-05-20T08:06:03;101782.38;;;19.22;100.00
36062;BME280;22123;52.412;20.970;2023-05-20T08:08:29;101781.34;;;19.51;100.00
36062;BME280;22123;52.412;20.970;2023-05-20T08:10:55;101783.22;;;19.79;100.00
36062;BME280;22123;52.412;20.970;2023-05-20T08:13:22;101785.59;;;19.89;100.00
36062;BME280;22123;52.412;20.970;2023-05-20T08:15:48;101772.19;;;20.01;100.00
36062;BME280;22123;52.412;20.970;2023-05-20T08:18:14;101779.22;;;20.23;100.00
36062;BME280;22123;52.412;20.970;2023-05-20T08:20:40;101782.88;;;20.44;100.00
36062;BME280;22123;52.412;20.970;2023-05-20T08:23:06;101785.88;;;20.62;100.00
36062;BME280;22123;52.412;20.970;2023-05-20T08:25:32;101778.09;;;20.66;100.00
36062;BME280;22123;52.412;20.970;2023-05-20T08:28:01;101790.78;;;20.80;100.00
36062;BME280;22123;52.412;20.970;2023-05-20T08:30:27;101766.16;;;20.87;100.00
36062;BME280;22123;52.412;20.970;2023-05-20T08:32:53;101773.50;;;20.73;100.00
36062;BME280;22123;52.412;20.970;2023-05-20T08:35:19;101777.47;;;20.64;100.00
36062;BME280;22123;52.412;20.970;2023-05-20T08:37:44;101763.72;;;20.50;100.00
36062;BME280;22123;52.412;20.970;2023-05-20T08:40:11;101767.94;;;20.46;100.00
36062;BME280;22123;52.412;20.970;2023-05-20T08:42:40;101757.19;;;20.38;100.00
36062;BME280;22123;52.412;20.970;2023-05-20T08:45:10;101778.09;;;20.66;100.00
36062;BME280;22123;52.412;20.970;2023-05-20T08:47:38;101778.34;;;20.91;100.00
36062;BME280;22123;52.412;20.970;2023-05-20T08:50:05;101772.25;;;21.23;100.00
36062;BME280;22123;52.412;20.970;2023-05-20T08:52:33;101727.63;;;21.02;100.00
36062;BME280;22123;52.412;20.970;2023-05-20T08:55:01;101767.63;;;21.10;100.00
36062;BME280;22123;52.412;20.970;2023-05-20T08:57:27;101765.09;;;21.22;100.00
36062;BME280;22123;52.412;20.970;2023-05-20T08:59:54;101704.88;;;21.08;100.00
36062;BME280;22123;52.412;20.970;2023-05-20T09:02:20;101743.59;;;21.39;100.00
36062;BME280;22123;52.412;20.970;2023-05-20T09:04:46;101740.22;;;21.57;100.00
36062;BME280;22123;52.412;20.970;2023-05-20T09:07:12;101737.06;;;21.60;100.00
36062;BME280;22123;52.412;20.970;2023-05-20T09:09:37;101748.63;;;21.62;100.00
36062;BME280;22123;52.412;20.970;2023-05-20T09:12:06;101730.72;;;21.66;100.00
36062;BME280;22123;52.412;20.970;2023-05-20T09:14:32;101738.91;;;21.73;100.00
36062;BME280;22123;52.412;20.970;2023-05-20T09:16:58;101748.16;;;21.78;100.00
36062;BME280;22123;52.412;20.970;2023-05-20T09:19:24;101747.31;;;21.78;100.00
36062;BME280;22123;52.412;20.970;2023-05-20T09:21:53;101755.31;;;21.79;100.00
36062;BME280;22123;52.412;20.970;2023-05-20T09:24:23;101730.44;;;21.81;100.00
36062;BME280;22123;52.412;20.970;2023-05-20T09:26:48;101728.94;;;21.92;100.00
36062;BME280;22123;52.412;20.970;2023-05-20T09:29:14;101746.06;;;22.26;100.00
36062;BME280;22123;52.412;20.970;2023-05-20T09:31:40;101734.88;;;22.34;100.00
36062;BME280;22123;52.412;20.970;2023-05-20T09:34:06;101733.16;;;22.39;100.00
36062;BME280;22123;52.412;20.970;2023-05-20T09:36:34;101745.38;;;22.44;100.00
36062;BME280;22123;52.412;20.970;2023-05-20T09:39:01;101739.88;;;22.44;100.00
36062;BME280;22123;52.412;20.970;2023-05-20T09:41:33;101721.44;;;22.19;100.00
36062;BME280;22123;52.412;20.970;2023-05-20T09:44:02;101738.66;;;22.33;100.00
36062;BME280;22123;52.412;20.970;2023-05-20T09:46:29;101709.38;;;22.20;100.00
36062;BME280;22123;52.412;20.970;2023-05-20T09:48:55;101741.59;;;22.38;100.00
36062;BME280;22123;52.412;20.970;2023-05-20T09:51:22;101750.88;;;22.37;100.00
36062;BME280;22123;52.412;20.970;2023-05-20T09:53:49;101743.09;;;22.27;100.00
36062;BME280;22123;52.412;20.970;2023-05-20T09:56:18;101740.56;;;22.26;100.00
36062;BME280;22123;52.412;20.970;2023-05-20T09:58:46;101709.66;;;22.05;100.00
36062;BME280;22123;52.412;20.970;2023-05-20T10:01:14;101717.28;;;22.03;100.00
36062;BME280;22123;52.412;20.970;2023-05-20T10:03:40;101739.16;;;22.16;100.00
36062;BME280;22123;52.412;20.970;2023-05-20T10:16:52;101731.75;;;22.87;100.00
36062;BME280;22123;52.412;20.970;2023-05-20T10:19:33;101714.66;;;23.73;100.00
36062;BME280;22123;52.412;20.970;2023-05-20T10:22:04;101710.22;;;24.51;100.00
36062;BME280;22123;52.412;20.970;2023-05-20T10:24:32;101733.69;;;24.96;100.00
36062;BME280;22123;52.412;20.970;2023-05-20T10:27:01;101733.69;;;25.31;100.00
36062;BME280;22123;52.412;20.970;2023-05-20T10:29:27;101709.69;;;25.67;100.00
36062;BME280;22123;52.412;20.970;2023-05-20T10:31:53;101722.66;;;26.08;100.00
36062;BME280;22123;52.412;20.970;2023-05-20T10:34:21;101720.25;;;25.99;100.00
36062;BME280;22123;52.412;20.970;2023-05-20T10:39:26;101711.47;;;25.74;100.00
36062;BME280;22123;52.412;20.970;2023-05-20T10:41:52;101690.47;;;25.84;100.00
36062;BME280;22123;52.412;20.970;2023-05-20T10:44:18;101693.06;;;26.03;100.00
36062;BME280;22123;52.412;20.970;2023-05-20T10:46:44;101680.00;;;25.98;100.00
36062;BME280;22123;52.412;20.970;2023-05-20T10:49:17;101689.19;;;26.16;100.00
36062;BME280;22123;52.412;20.970;2023-05-20T10:51:44;101691.63;;;26.29;100.00
36062;BME280;22123;52.412;20.970;2023-05-20T10:54:10;101674.69;;;26.26;100.00
36062;BME280;22123;52.412;20.970;2023-05-20T10:56:37;101660.94;;;26.43;100.00
36062;BME280;22123;52.412;20.970;2023-05-20T10:59:03;101653.06;;;26.34;100.00
36062;BME280;22123;52.412;20.970;2023-05-20T11:01:29;101662.69;;;26.66;100.00
36062;BME280;22123;52.412;20.970;2023-05-20T11:03:56;101666.81;;;26.97;100.00
36062;BME280;22123;52.412;20.970;2023-05-20T11:06:26;101671.59;;;27.24;100.00
36062;BME280;22123;52.412;20.970;2023-05-20T11:08:52;101656.78;;;27.30;100.00
36062;BME280;22123;52.412;20.970;2023-05-20T11:11:18;101659.09;;;27.38;100.00
36062;BME280;22123;52.412;20.970;2023-05-20T11:13:44;101648.13;;;27.44;100.00
36062;BME280;22123;52.412;20.970;2023-05-20T11:16:14;101651.28;;;27.13;100.00
36062;BME280;22123;52.412;20.970;2023-05-20T11:18:40;101651.47;;;27.06;100.00
36062;BME280;22123;52.412;20.970;2023-05-20T11:21:06;101641.75;;;27.04;100.00
36062;BME280;22123;52.412;20.970;2023-05-20T11:23:32;101646.53;;;27.09;100.00
36062;BME280;22123;52.412;20.970;2023-05-20T11:25:58;101629.75;;;27.15;100.00
36062;BME280;22123;52.412;20.970;2023-05-20T11:28:24;101637.16;;;27.32;100.00
36062;BME280;22123;52.412;20.970;2023-05-20T11:30:51;101650.50;;;27.35;100.00
36062;BME280;22123;52.412;20.970;2023-05-20T11:33:17;101639.47;;;26.79;100.00
36062;BME280;22123;52.412;20.970;2023-05-20T11:35:45;101648.31;;;26.64;100.00
36062;BME280;22123;52.412;20.970;2023-05-20T11:38:11;101649.22;;;26.52;100.00
36062;BME280;22123;52.412;20.970;2023-05-20T11:40:42;101636.28;;;26.36;100.00
36062;BME280;22123;52.412;20.970;2023-05-20T11:43:09;101622.25;;;26.26;100.00
36062;BME280;22123;52.412;20.970;2023-05-20T11:45:43;101650.47;;;26.28;100.00
36062;BME280;22123;52.412;20.970;2023-05-20T11:48:10;101642.94;;;25.94;100.00
36062;BME280;22123;52.412;20.970;2023-05-20T11:50:37;101652.16;;;25.71;100.00
36062;BME280;22123;52.412;20.970;2023-05-20T11:53:04;101659.50;;;25.42;100.00
36062;BME280;22123;52.412;20.970;2023-05-20T11:55:31;101642.41;;;25.16;100.00
36062;BME280;22123;52.412;20.970;2023-05-20T11:57:58;101646.50;;;25.02;100.00
36062;BME280;22123;52.412;20.970;2023-05-20T12:00:24;101663.63;;;24.80;100.00
36062;BME280;22123;52.412;20.970;2023-05-20T12:02:50;101645.56;;;24.42;100.00
36062;BME280;22123;52.412;20.970;2023-05-20T12:05:16;101635.16;;;24.32;100.00
36062;BME280;22123;52.412;20.970;2023-05-20T12:07:43;101648.22;;;24.48;100.00
36062;BME280;22123;52.412;20.970;2023-05-20T12:10:09;101652.25;;;24.34;100.00
36062;BME280;22123;52.412;20.970;2023-05-20T12:12:35;101654.97;;;24.10;100.00
36062;BME280;22123;52.412;20.970;2023-05-20T12:15:03;101645.97;;;23.85;100.00
36062;BME280;22123;52.412;20.970;2023-05-20T12:17:30;101631.19;;;23.67;100.00
36062;BME280;22123;52.412;20.970;2023-05-20T12:19:55;101631.13;;;23.74;100.00
36062;BME280;22123;52.412;20.970;2023-05-20T12:22:21;101642.09;;;23.92;100.00
36062;BME280;22123;52.412;20.970;2023-05-20T12:24:48;101657.78;;;24.04;100.00
36062;BME280;22123;52.412;20.970;2023-05-20T12:27:14;101634.69;;;23.93;100.00
36062;BME280;22123;52.412;20.970;2023-05-20T12:29:40;101631.09;;;23.92;100.00
36062;BME280;22123;52.412;20.970;2023-05-20T12:32:06;101618.28;;;23.86;100.00
36062;BME280;22123;52.412;20.970;2023-05-20T12:34:32;101620.94;;;23.93;100.00
36062;BME280;22123;52.412;20.970;2023-05-20T12:36:58;101639.47;;;23.98;100.00
36062;BME280;22123;52.412;20.970;2023-05-20T12:39:24;101641.16;;;23.99;100.00